Terminal Aerodrome Forecast
Issued by NWS Missoula, MT

Home | Current Version | Previous Version | Text Only | Print | Product List | Glossary On
Versions: 1 2 3 4 5 6 7 8 9 10 11 12 13 14 15 16 17 18 19 20 21 22 23 24 25 26 27 28
000
FTUS45 KMSO 290726 AAA
TAFBTM
TAF AMD
KBTM 290726Z 2907/3006 15011KT P6SM VCSH SCT030 OVC050
     FM292100 12007KT P6SM VCSH BKN050
     FM300000 VRB04KT P6SM -SHRA SCT015 OVC025=

USA.gov is the U.S. government's official web portal to all federal, state and local government web resources and services.